sensor_id;sensor_type;location;lat;lon;timestamp;P1;durP1;ratioP1;P2;durP2;ratioP2
69417;SDS011;56610;48.872;2.400;2023-09-19T00:02:14;2.80;;;1.50;;
69417;SDS011;56610;48.872;2.400;2023-09-19T00:04:39;3.38;;;1.50;;
69417;SDS011;56610;48.872;2.400;2023-09-19T00:07:05;4.72;;;1.30;;
69417;SDS011;56610;48.872;2.400;2023-09-19T00:09:31;5.00;;;1.67;;
69417;SDS011;56610;48.872;2.400;2023-09-19T00:12:02;5.72;;;1.60;;
69417;SDS011;56610;48.872;2.400;2023-09-19T00:14:29;4.32;;;1.40;;
69417;SDS011;56610;48.872;2.400;2023-09-19T00:16:58;4.65;;;1.50;;
69417;SDS011;56610;48.872;2.400;2023-09-19T00:19:25;3.42;;;1.33;;
69417;SDS011;56610;48.872;2.400;2023-09-19T00:21:51;5.43;;;1.58;;
69417;SDS011;56610;48.872;2.400;2023-09-19T00:24:18;3.80;;;1.42;;
69417;SDS011;56610;48.872;2.400;2023-09-19T00:26:43;4.57;;;1.40;;
69417;SDS011;56610;48.872;2.400;2023-09-19T00:29:12;5.47;;;1.27;;
69417;SDS011;56610;48.872;2.400;2023-09-19T00:31:42;4.80;;;1.65;;
69417;SDS011;56610;48.872;2.400;2023-09-19T00:34:09;4.22;;;1.30;;
69417;SDS011;56610;48.872;2.400;2023-09-19T00:36:35;5.57;;;1.50;;
69417;SDS011;56610;48.872;2.400;2023-09-19T00:41:30;4.85;;;1.45;;
69417;SDS011;56610;48.872;2.400;2023-09-19T00:43:56;5.28;;;1.77;;
69417;SDS011;56610;48.872;2.400;2023-09-19T00:46:22;6.90;;;1.75;;
69417;SDS011;56610;48.872;2.400;2023-09-19T00:48:47;7.68;;;1.77;;
69417;SDS011;56610;48.872;2.400;2023-09-19T00:51:14;5.57;;;1.60;;
69417;SDS011;56610;48.872;2.400;2023-09-19T00:53:44;5.10;;;1.52;;
69417;SDS011;56610;48.872;2.400;2023-09-19T00:56:11;6.70;;;1.57;;
69417;SDS011;56610;48.872;2.400;2023-09-19T00:58:37;4.50;;;1.30;;
69417;SDS011;56610;48.872;2.400;2023-09-19T01:01:03;4.65;;;1.60;;
69417;SDS011;56610;48.872;2.400;2023-09-19T01:03:32;6.20;;;1.75;;
69417;SDS011;56610;48.872;2.400;2023-09-19T01:05:59;3.80;;;1.27;;
69417;SDS011;56610;48.872;2.400;2023-09-19T01:08:25;4.07;;;1.13;;
69417;SDS011;56610;48.872;2.400;2023-09-19T01:10:55;5.50;;;1.73;;
69417;SDS011;56610;48.872;2.400;2023-09-19T01:17:00;4.38;;;1.65;;
69417;SDS011;56610;48.872;2.400;2023-09-19T01:30:33;5.15;;;1.45;;
69417;SDS011;56610;48.872;2.400;2023-09-19T01:33:03;3.78;;;1.30;;
69417;SDS011;56610;48.872;2.400;2023-09-19T01:35:31;6.65;;;2.13;;
69417;SDS011;56610;48.872;2.400;2023-09-19T01:37:57;3.67;;;1.55;;
69417;SDS011;56610;48.872;2.400;2023-09-19T01:40:24;5.38;;;1.52;;
69417;SDS011;56610;48.872;2.400;2023-09-19T01:46:04;4.72;;;1.52;;
69417;SDS011;56610;48.872;2.400;2023-09-19T01:49:00;3.42;;;1.20;;
69417;SDS011;56610;48.872;2.400;2023-09-19T01:54:21;3.50;;;1.35;;
69417;SDS011;56610;48.872;2.400;2023-09-19T02:00:04;7.40;;;1.75;;
69417;SDS011;56610;48.872;2.400;2023-09-19T02:02:34;5.95;;;1.65;;
69417;SDS011;56610;48.872;2.400;2023-09-19T02:05:03;5.10;;;1.42;;
69417;SDS011;56610;48.872;2.400;2023-09-19T02:07:29;5.70;;;1.73;;
69417;SDS011;56610;48.872;2.400;2023-09-19T02:09:57;5.68;;;1.80;;
69417;SDS011;56610;48.872;2.400;2023-09-19T02:12:25;6.60;;;2.00;;
69417;SDS011;56610;48.872;2.400;2023-09-19T02:14:51;5.30;;;1.50;;
69417;SDS011;56610;48.872;2.400;2023-09-19T02:17:16;5.30;;;1.77;;
69417;SDS011;56610;48.872;2.400;2023-09-19T02:19:42;6.15;;;1.77;;
69417;SDS011;56610;48.872;2.400;2023-09-19T02:22:08;6.78;;;1.88;;
69417;SDS011;56610;48.872;2.400;2023-09-19T02:24:35;3.03;;;1.40;;
69417;SDS011;56610;48.872;2.400;2023-09-19T02:27:04;4.75;;;1.70;;
69417;SDS011;56610;48.872;2.400;2023-09-19T02:29:30;6.38;;;1.77;;
69417;SDS011;56610;48.872;2.400;2023-09-19T02:31:55;6.13;;;1.85;;
69417;SDS011;56610;48.872;2.400;2023-09-19T02:34:21;5.18;;;1.67;;
69417;SDS011;56610;48.872;2.400;2023-09-19T02:36:48;6.38;;;1.80;;
69417;SDS011;56610;48.872;2.400;2023-09-19T02:39:13;5.28;;;1.50;;
69417;SDS011;56610;48.872;2.400;2023-09-19T02:41:39;6.13;;;2.17;;
69417;SDS011;56610;48.872;2.400;2023-09-19T02:44:06;4.73;;;1.60;;
69417;SDS011;56610;48.872;2.400;2023-09-19T02:46:33;5.03;;;1.48;;
69417;SDS011;56610;48.872;2.400;2023-09-19T02:49:01;6.60;;;2.00;;
69417;SDS011;56610;48.872;2.400;2023-09-19T02:51:30;5.60;;;1.73;;
69417;SDS011;56610;48.872;2.400;2023-09-19T02:53:55;6.65;;;1.85;;
69417;SDS011;56610;48.872;2.400;2023-09-19T02:56:21;7.53;;;2.25;;
69417;SDS011;56610;48.872;2.400;2023-09-19T02:58:47;4.82;;;2.08;;
69417;SDS011;56610;48.872;2.400;2023-09-19T03:04:35;8.10;;;2.25;;
69417;SDS011;56610;48.872;2.400;2023-09-19T03:07:01;9.15;;;2.00;;
69417;SDS011;56610;48.872;2.400;2023-09-19T03:09:29;7.50;;;2.40;;
69417;SDS011;56610;48.872;2.400;2023-09-19T03:11:54;5.55;;;1.60;;
69417;SDS011;56610;48.872;2.400;2023-09-19T03:14:20;6.95;;;1.85;;
69417;SDS011;56610;48.872;2.400;2023-09-19T03:16:46;7.18;;;1.85;;
69417;SDS011;56610;48.872;2.400;2023-09-19T03:19:11;5.80;;;1.85;;
69417;SDS011;56610;48.872;2.400;2023-09-19T03:21:37;7.03;;;2.10;;
69417;SDS011;56610;48.872;2.400;2023-09-19T03:24:03;8.05;;;2.00;;
69417;SDS011;56610;48.872;2.400;2023-09-19T03:26:29;6.57;;;2.03;;
69417;SDS011;56610;48.872;2.400;2023-09-19T03:28:55;7.47;;;2.30;;
69417;SDS011;56610;48.872;2.400;2023-09-19T03:31:20;8.05;;;2.10;;
69417;SDS011;56610;48.872;2.400;2023-09-19T03:33:46;6.50;;;1.90;;
69417;SDS011;56610;48.872;2.400;2023-09-19T03:36:12;6.03;;;1.65;;
69417;SDS011;56610;48.872;2.400;2023-09-19T03:38:38;10.10;;;2.30;;
69417;SDS011;56610;48.872;2.400;2023-09-19T03:41:04;7.53;;;2.38;;
69417;SDS011;56610;48.872;2.400;2023-09-19T03:43:29;6.63;;;1.92;;
69417;SDS011;56610;48.872;2.400;2023-09-19T03:45:57;8.98;;;2.13;;
69417;SDS011;56610;48.872;2.400;2023-09-19T03:48:28;7.80;;;2.08;;
69417;SDS011;56610;48.872;2.400;2023-09-19T03:50:54;5.93;;;1.95;;
69417;SDS011;56610;48.872;2.400;2023-09-19T03:53:21;6.47;;;1.80;;
69417;SDS011;56610;48.872;2.400;2023-09-19T03:55:47;5.93;;;2.05;;
69417;SDS011;56610;48.872;2.400;2023-09-19T03:58:12;8.70;;;2.13;;
69417;SDS011;56610;48.872;2.400;2023-09-19T04:00:38;7.10;;;1.83;;
69417;SDS011;56610;48.872;2.400;2023-09-19T04:03:04;6.88;;;1.50;;
69417;SDS011;56610;48.872;2.400;2023-09-19T04:05:31;6.43;;;1.55;;
69417;SDS011;56610;48.872;2.400;2023-09-19T04:07:58;7.20;;;2.07;;
69417;SDS011;56610;48.872;2.400;2023-09-19T04:10:24;7.15;;;2.00;;
69417;SDS011;56610;48.872;2.400;2023-09-19T04:12:52;5.38;;;1.80;;
69417;SDS011;56610;48.872;2.400;2023-09-19T04:15:19;6.47;;;1.73;;
69417;SDS011;56610;48.872;2.400;2023-09-19T04:17:47;5.28;;;1.80;;
69417;SDS011;56610;48.872;2.400;2023-09-19T04:20:13;4.97;;;1.80;;
69417;SDS011;56610;48.872;2.400;2023-09-19T04:22:39;7.47;;;2.00;;
69417;SDS011;56610;48.872;2.400;2023-09-19T04:25:04;5.65;;;1.88;;
69417;SDS011;56610;48.872;2.400;2023-09-19T04:27:32;5.40;;;1.60;;
69417;SDS011;56610;48.872;2.400;2023-09-19T04:29:57;9.45;;;1.90;;
69417;SDS011;56610;48.872;2.400;2023-09-19T04:32:24;6.13;;;1.90;;
69417;SDS011;56610;48.872;2.400;2023-09-19T04:34:53;6.97;;;2.05;;
69417;SDS011;56610;48.872;2.400;2023-09-19T04:37:19;7.13;;;1.75;;
69417;SDS011;56610;48.872;2.400;2023-09-19T04:39:44;5.15;;;2.10;;
69417;SDS011;56610;48.872;2.400;2023-09-19T04:42:12;6.35;;;1.70;;
69417;SDS011;56610;48.872;2.400;2023-09-19T04:44:39;8.27;;;2.10;;
69417;SDS011;56610;48.872;2.400;2023-09-19T04:47:05;8.52;;;2.50;;
69417;SDS011;56610;48.872;2.400;2023-09-19T04:49:31;5.30;;;2.20;;
69417;SDS011;56610;48.872;2.400;2023-09-19T04:51:56;6.88;;;2.00;;
69417;SDS011;56610;48.872;2.400;2023-09-19T04:54:22;6.88;;;2.10;;
69417;SDS011;56610;48.872;2.400;2023-09-19T04:56:48;7.15;;;2.22;;
69417;SDS011;56610;48.872;2.400;2023-09-19T04:59:13;6.85;;;2.05;;
69417;SDS011;56610;48.872;2.400;2023-09-19T05:01:40;6.55;;;2.05;;
69417;SDS011;56610;48.872;2.400;2023-09-19T05:04:05;5.90;;;1.95;;
69417;SDS011;56610;48.872;2.400;2023-09-19T05:06:31;6.75;;;1.98;;
69417;SDS011;56610;48.872;2.400;2023-09-19T05:08:58;7.97;;;2.20;;
69417;SDS011;56610;48.872;2.400;2023-09-19T05:11:25;7.95;;;2.20;;
69417;SDS011;56610;48.872;2.400;2023-09-19T05:13:51;5.32;;;1.67;;
69417;SDS011;56610;48.872;2.400;2023-09-19T05:16:17;7.00;;;2.22;;
69417;SDS011;56610;48.872;2.400;2023-09-19T05:18:43;5.90;;;2.00;;
69417;SDS011;56610;48.872;2.400;2023-09-19T05:21:09;5.80;;;2.10;;
69417;SDS011;56610;48.872;2.400;2023-09-19T05:23:34;5.93;;;2.13;;
69417;SDS011;56610;48.872;2.400;2023-09-19T05:28:57;7.43;;;2.30;;
69417;SDS011;56610;48.872;2.400;2023-09-19T05:31:23;6.82;;;1.85;;
69417;SDS011;56610;48.872;2.400;2023-09-19T05:33:50;7.03;;;2.20;;
69417;SDS011;56610;48.872;2.400;2023-09-19T05:36:17;7.95;;;2.22;;
69417;SDS011;56610;48.872;2.400;2023-09-19T05:38:42;4.78;;;1.95;;
69417;SDS011;56610;48.872;2.400;2023-09-19T05:41:09;8.82;;;2.20;;
69417;SDS011;56610;48.872;2.400;2023-09-19T05:43:38;6.00;;;2.10;;
69417;SDS011;56610;48.872;2.400;2023-09-19T05:46:05;5.35;;;1.92;;
69417;SDS011;56610;48.872;2.400;2023-09-19T05:48:33;5.35;;;1.90;;
69417;SDS011;56610;48.872;2.400;2023-09-19T05:50:59;7.40;;;2.10;;
69417;SDS011;56610;48.872;2.400;2023-09-19T05:53:26;6.35;;;2.20;;
69417;SDS011;56610;48.872;2.400;2023-09-19T05:55:52;7.53;;;1.70;;
69417;SDS011;56610;48.872;2.400;2023-09-19T05:58:18;9.20;;;2.13;;
69417;SDS011;56610;48.872;2.400;2023-09-19T06:00:45;7.95;;;2.03;;
69417;SDS011;56610;48.872;2.400;2023-09-19T06:03:12;5.30;;;2.00;;
69417;SDS011;56610;48.872;2.400;2023-09-19T06:05:38;6.68;;;1.98;;
69417;SDS011;56610;48.872;2.400;2023-09-19T06:08:06;7.05;;;2.33;;
69417;SDS011;56610;48.872;2.400;2023-09-19T06:10:33;8.52;;;2.10;;
69417;SDS011;56610;48.872;2.400;2023-09-19T06:12:59;6.93;;;1.90;;
69417;SDS011;56610;48.872;2.400;2023-09-19T06:15:29;5.38;;;2.40;;
69417;SDS011;56610;48.872;2.400;2023-09-19T06:17:57;5.97;;;1.95;;
69417;SDS011;56610;48.872;2.400;2023-09-19T06:20:24;7.05;;;2.20;;
69417;SDS011;56610;48.872;2.400;2023-09-19T06:22:51;7.33;;;2.00;;
69417;SDS011;56610;48.872;2.400;2023-09-19T06:25:18;8.02;;;2.05;;
69417;SDS011;56610;48.872;2.400;2023-09-19T06:27:47;8.15;;;2.05;;
69417;SDS011;56610;48.872;2.400;2023-09-19T06:30:18;7.22;;;2.00;;
69417;SDS011;56610;48.872;2.400;2023-09-19T06:32:44;6.10;;;1.75;;
69417;SDS011;56610;48.872;2.400;2023-09-19T06:35:11;4.80;;;1.88;;
69417;SDS011;56610;48.872;2.400;2023-09-19T06:37:38;8.25;;;2.22;;
69417;SDS011;56610;48.872;2.400;2023-09-19T06:40:06;7.63;;;2.00;;
69417;SDS011;56610;48.872;2.400;2023-09-19T06:45:43;6.30;;;2.08;;
69417;SDS011;56610;48.872;2.400;2023-09-19T06:48:10;8.70;;;2.45;;
69417;SDS011;56610;48.872;2.400;2023-09-19T06:50:37;6.38;;;1.60;;
69417;SDS011;56610;48.872;2.400;2023-09-19T06:53:03;6.35;;;2.05;;
69417;SDS011;56610;48.872;2.400;2023-09-19T06:55:29;7.38;;;2.10;;
69417;SDS011;56610;48.872;2.400;2023-09-19T06:57:56;6.43;;;2.42;;
69417;SDS011;56610;48.872;2.400;2023-09-19T07:00:23;6.72;;;2.00;;
69417;SDS011;56610;48.872;2.400;2023-09-19T07:02:55;7.35;;;2.05;;
69417;SDS011;56610;48.872;2.400;2023-09-19T07:05:29;6.70;;;2.00;;
69417;SDS011;56610;48.872;2.400;2023-09-19T07:07:56;9.37;;;2.23;;
69417;SDS011;56610;48.872;2.400;2023-09-19T07:10:25;8.60;;;2.10;;
69417;SDS011;56610;48.872;2.400;2023-09-19T07:15:24;7.97;;;2.05;;
69417;SDS011;56610;48.872;2.400;2023-09-19T07:17:54;8.98;;;2.35;;
69417;SDS011;56610;48.872;2.400;2023-09-19T07:20:21;7.85;;;2.00;;
69417;SDS011;56610;48.872;2.400;2023-09-19T07:22:48;6.70;;;1.85;;
69417;SDS011;56610;48.872;2.400;2023-09-19T07:25:15;8.35;;;2.00;;
69417;SDS011;56610;48.872;2.400;2023-09-19T07:27:57;6.82;;;2.38;;
69417;SDS011;56610;48.872;2.400;2023-09-19T07:30:27;9.63;;;2.40;;
69417;SDS011;56610;48.872;2.400;2023-09-19T07:32:53;7.28;;;2.22;;
69417;SDS011;56610;48.872;2.400;2023-09-19T07:35:19;6.30;;;1.80;;
69417;SDS011;56610;48.872;2.400;2023-09-19T07:37:46;8.02;;;1.88;;
69417;SDS011;56610;48.872;2.400;2023-09-19T07:40:15;6.47;;;2.20;;
69417;SDS011;56610;48.872;2.400;2023-09-19T07:42:41;5.28;;;1.73;;
69417;SDS011;56610;48.872;2.400;2023-09-19T07:47:38;5.93;;;2.22;;
69417;SDS011;56610;48.872;2.400;2023-09-19T07:50:04;5.43;;;1.75;;
69417;SDS011;56610;48.872;2.400;2023-09-19T07:52:32;8.82;;;2.17;;
69417;SDS011;56610;48.872;2.400;2023-09-19T07:54:58;7.10;;;2.20;;
69417;SDS011;56610;48.872;2.400;2023-09-19T07:57:26;6.85;;;1.90;;
69417;SDS011;56610;48.872;2.400;2023-09-19T07:59:55;9.25;;;2.38;;
69417;SDS011;56610;48.872;2.400;2023-09-19T08:02:20;7.38;;;1.98;;
69417;SDS011;56610;48.872;2.400;2023-09-19T08:04:47;5.88;;;2.03;;
69417;SDS011;56610;48.872;2.400;2023-09-19T08:07:15;7.47;;;2.05;;
69417;SDS011;56610;48.872;2.400;2023-09-19T08:09:40;5.15;;;2.20;;
69417;SDS011;56610;48.872;2.400;2023-09-19T08:12:07;6.53;;;2.30;;
69417;SDS011;56610;48.872;2.400;2023-09-19T08:14:35;5.97;;;2.15;;
69417;SDS011;56610;48.872;2.400;2023-09-19T08:17:05;8.27;;;1.92;;
69417;SDS011;56610;48.872;2.400;2023-09-19T08:19:43;6.68;;;1.85;;
69417;SDS011;56610;48.872;2.400;2023-09-19T08:22:11;6.03;;;2.20;;
69417;SDS011;56610;48.872;2.400;2023-09-19T08:24:37;9.07;;;1.90;;
69417;SDS011;56610;48.872;2.400;2023-09-19T08:27:03;6.57;;;1.92;;
69417;SDS011;56610;48.872;2.400;2023-09-19T08:29:30;4.47;;;1.75;;
69417;SDS011;56610;48.872;2.400;2023-09-19T08:31:57;6.43;;;2.00;;
69417;SDS011;56610;48.872;2.400;2023-09-19T08:34:26;6.90;;;2.20;;
69417;SDS011;56610;48.872;2.400;2023-09-19T08:36:52;7.15;;;1.98;;
69417;SDS011;56610;48.872;2.400;2023-09-19T08:39:23;7.75;;;1.90;;
69417;SDS011;56610;48.872;2.400;2023-09-19T08:41:49;6.97;;;1.73;;
69417;SDS011;56610;48.872;2.400;2023-09-19T08:44:14;7.97;;;1.90;;
69417;SDS011;56610;48.872;2.400;2023-09-19T08:46:41;6.25;;;2.00;;
69417;SDS011;56610;48.872;2.400;2023-09-19T08:49:10;8.85;;;2.33;;
69417;SDS011;56610;48.872;2.400;2023-09-19T08:52:10;6.32;;;2.03;;
69417;SDS011;56610;48.872;2.400;2023-09-19T08:54:56;5.47;;;1.80;;
69417;SDS011;56610;48.872;2.400;2023-09-19T08:57:29;7.72;;;1.92;;
69417;SDS011;56610;48.872;2.400;2023-09-19T09:00:01;6.28;;;1.95;;
69417;SDS011;56610;48.872;2.400;2023-09-19T09:02:31;7.15;;;1.75;;
69417;SDS011;56610;48.872;2.400;2023-09-19T09:05:00;6.68;;;2.22;;
69417;SDS011;56610;48.872;2.400;2023-09-19T09:07:30;6.65;;;1.83;;
69417;SDS011;56610;48.872;2.400;2023-09-19T09:09:56;7.20;;;1.98;;
69417;SDS011;56610;48.872;2.400;2023-09-19T09:12:25;4.57;;;1.60;;
69417;SDS011;56610;48.872;2.400;2023-09-19T09:14:51;6.70;;;1.90;;
69417;SDS011;56610;48.872;2.400;2023-09-19T09:17:17;6.28;;;2.00;;
69417;SDS011;56610;48.872;2.400;2023-09-19T09:19:46;5.50;;;1.80;;
69417;SDS011;56610;48.872;2.400;2023-09-19T09:22:12;5.95;;;1.67;;
69417;SDS011;56610;48.872;2.400;2023-09-19T09:24:57;6.93;;;1.90;;
69417;SDS011;56610;48.872;2.400;2023-09-19T09:27:23;7.75;;;1.75;;
69417;SDS011;56610;48.872;2.400;2023-09-19T09:29:50;6.78;;;2.03;;
69417;SDS011;56610;48.872;2.400;2023-09-19T09:34:51;6.97;;;1.80;;
69417;SDS011;56610;48.872;2.400;2023-09-19T09:37:18;4.47;;;1.40;;
69417;SDS011;56610;48.872;2.400;2023-09-19T09:39:51;5.35;;;1.42;;
69417;SDS011;56610;48.872;2.400;2023-09-19T09:47:53;4.13;;;1.40;;
69417;SDS011;56610;48.872;2.400;2023-09-19T09:50:26;4.30;;;1.27;;
69417;SDS011;56610;48.872;2.400;2023-09-19T09:53:05;7.20;;;1.60;;
69417;SDS011;56610;48.872;2.400;2023-09-19T09:58:30;6.75;;;1.50;;
69417;SDS011;56610;48.872;2.400;2023-09-19T10:00:57;3.63;;;1.55;;
69417;SDS011;56610;48.872;2.400;2023-09-19T10:03:33;5.20;;;1.40;;
69417;SDS011;56610;48.872;2.400;2023-09-19T10:06:03;4.57;;;1.30;;
69417;SDS011;56610;48.872;2.400;2023-09-19T10:08:59;3.58;;;1.20;;
69417;SDS011;56610;48.872;2.400;2023-09-19T10:11:40;3.65;;;1.10;;
69417;SDS011;56610;48.872;2.400;2023-09-19T10:14:14;4.53;;;1.13;;
69417;SDS011;56610;48.872;2.400;2023-09-19T10:16:50;3.13;;;1.40;;
69417;SDS011;56610;48.872;2.400;2023-09-19T10:19:29;4.80;;;1.92;;
69417;SDS011;56610;48.872;2.400;2023-09-19T10:22:01;3.83;;;1.50;;
69417;SDS011;56610;48.872;2.400;2023-09-19T10:24:28;6.83;;;1.20;;
69417;SDS011;56610;48.872;2.400;2023-09-19T10:26:56;2.50;;;1.35;;
69417;SDS011;56610;48.872;2.400;2023-09-19T10:29:22;4.78;;;1.33;;
69417;SDS011;56610;48.872;2.400;2023-09-19T10:31:50;3.88;;;1.70;;
69417;SDS011;56610;48.872;2.400;2023-09-19T10:34:18;4.65;;;1.48;;
69417;SDS011;56610;48.872;2.400;2023-09-19T10:36:45;2.83;;;1.20;;
69417;SDS011;56610;48.872;2.400;2023-09-19T10:39:12;3.38;;;1.20;;
69417;SDS011;56610;48.872;2.400;2023-09-19T10:41:53;4.68;;;1.20;;
69417;SDS011;56610;48.872;2.400;2023-09-19T10:44:24;4.72;;;1.17;;
69417;SDS011;56610;48.872;2.400;2023-09-19T10:46:51;3.23;;;1.03;;
69417;SDS011;56610;48.872;2.400;2023-09-19T10:49:18;1.67;;;1.15;;
69417;SDS011;56610;48.872;2.400;2023-09-19T10:51:45;3.67;;;1.40;;
69417;SDS011;56610;48.872;2.400;2023-09-19T10:54:15;2.88;;;1.25;;
69417;SDS011;56610;48.872;2.400;2023-09-19T10:56:46;3.38;;;1.05;;
69417;SDS011;56610;48.872;2.400;2023-09-19T10:59:16;3.28;;;1.30;;
69417;SDS011;56610;48.872;2.400;2023-09-19T11:01:49;3.75;;;1.30;;
69417;SDS011;56610;48.872;2.400;2023-09-19T11:04:26;3.55;;;1.30;;
69417;SDS011;56610;48.872;2.400;2023-09-19T11:07:07;4.50;;;1.40;;
69417;SDS011;56610;48.872;2.400;2023-09-19T11:09:50;2.13;;;1.30;;
69417;SDS011;56610;48.872;2.400;2023-09-19T11:15:02;2.45;;;1.23;;
69417;SDS011;56610;48.872;2.400;2023-09-19T11:17:39;3.17;;;1.30;;
69417;SDS011;56610;48.872;2.400;2023-09-19T11:20:18;4.65;;;1.23;;
69417;SDS011;56610;48.872;2.400;2023-09-19T11:36:06;4.40;;;1.17;;
69417;SDS011;56610;48.872;2.400;2023-09-19T11:41:36;3.67;;;1.30;;
69417;SDS011;56610;48.872;2.400;2023-09-19T11:46:35;2.65;;;1.33;;
69417;SDS011;56610;48.872;2.400;2023-09-19T11:49:25;4.82;;;1.52;;
69417;SDS011;56610;48.872;2.400;2023-09-19T11:51:57;4.43;;;1.00;;
69417;SDS011;56610;48.872;2.400;2023-09-19T11:54:26;2.42;;;1.20;;
69417;SDS011;56610;48.872;2.400;2023-09-19T11:56:57;3.13;;;1.40;;
69417;SDS011;56610;48.872;2.400;2023-09-19T11:59:24;2.67;;;1.10;;
69417;SDS011;56610;48.872;2.400;2023-09-19T12:04:38;3.67;;;1.55;;
69417;SDS011;56610;48.872;2.400;2023-09-19T12:07:10;4.53;;;1.67;;
69417;SDS011;56610;48.872;2.400;2023-09-19T12:29:53;9.65;;;1.40;;
69417;SDS011;56610;48.872;2.400;2023-09-19T12:32:36;4.50;;;1.75;;
69417;SDS011;56610;48.872;2.400;2023-09-19T12:35:05;3.58;;;1.38;;
69417;SDS011;56610;48.872;2.400;2023-09-19T12:37:35;6.00;;;1.80;;
69417;SDS011;56610;48.872;2.400;2023-09-19T12:40:05;3.13;;;1.38;;
69417;SDS011;56610;48.872;2.400;2023-09-19T12:42:53;3.20;;;1.55;;
69417;SDS011;56610;48.872;2.400;2023-09-19T12:45:29;2.63;;;1.23;;
69417;SDS011;56610;48.872;2.400;2023-09-19T12:51:03;3.15;;;1.30;;
69417;SDS011;56610;48.872;2.400;2023-09-19T12:53:39;3.25;;;1.40;;
69417;SDS011;56610;48.872;2.400;2023-09-19T12:56:07;7.03;;;1.80;;
69417;SDS011;56610;48.872;2.400;2023-09-19T12:58:36;5.22;;;1.38;;
69417;SDS011;56610;48.872;2.400;2023-09-19T13:01:14;3.17;;;1.38;;
69417;SDS011;56610;48.872;2.400;2023-09-19T13:03:40;2.60;;;1.30;;
69417;SDS011;56610;48.872;2.400;2023-09-19T13:06:07;5.60;;;1.70;;
69417;SDS011;56610;48.872;2.400;2023-09-19T13:08:36;3.15;;;1.55;;
69417;SDS011;56610;48.872;2.400;2023-09-19T13:11:07;3.17;;;1.38;;
69417;SDS011;56610;48.872;2.400;2023-09-19T13:13:39;2.95;;;1.20;;
69417;SDS011;56610;48.872;2.400;2023-09-19T13:16:06;4.68;;;1.38;;
69417;SDS011;56610;48.872;2.400;2023-09-19T13:18:41;6.10;;;1.42;;
69417;SDS011;56610;48.872;2.400;2023-09-19T13:21:09;3.38;;;1.40;;
69417;SDS011;56610;48.872;2.400;2023-09-19T13:23:40;4.18;;;1.50;;
69417;SDS011;56610;48.872;2.400;2023-09-19T13:26:11;3.47;;;1.73;;
69417;SDS011;56610;48.872;2.400;2023-09-19T13:28:37;5.15;;;1.63;;
69417;SDS011;56610;48.872;2.400;2023-09-19T13:31:04;2.90;;;1.50;;
69417;SDS011;56610;48.872;2.400;2023-09-19T13:33:30;4.35;;;1.60;;
69417;SDS011;56610;48.872;2.400;2023-09-19T13:35:56;3.67;;;1.38;;
69417;SDS011;56610;48.872;2.400;2023-09-19T13:38:22;3.13;;;1.30;;
69417;SDS011;56610;48.872;2.400;2023-09-19T13:40:49;3.85;;;1.50;;
69417;SDS011;56610;48.872;2.400;2023-09-19T13:43:17;4.22;;;1.52;;
69417;SDS011;56610;48.872;2.400;2023-09-19T13:45:43;3.47;;;1.30;;
69417;SDS011;56610;48.872;2.400;2023-09-19T13:48:08;3.08;;;1.30;;
69417;SDS011;56610;48.872;2.400;2023-09-19T13:50:36;5.60;;;2.00;;
69417;SDS011;56610;48.872;2.400;2023-09-19T13:53:07;5.75;;;1.80;;
69417;SDS011;56610;48.872;2.400;2023-09-19T13:55:36;3.88;;;1.60;;
69417;SDS011;56610;48.872;2.400;2023-09-19T13:58:03;3.58;;;1.40;;
69417;SDS011;56610;48.872;2.400;2023-09-19T14:00:31;3.38;;;1.13;;
69417;SDS011;56610;48.872;2.400;2023-09-19T14:02:59;3.95;;;1.50;;
69417;SDS011;56610;48.872;2.400;2023-09-19T14:05:26;2.97;;;1.35;;
69417;SDS011;56610;48.872;2.400;2023-09-19T14:07:53;4.53;;;1.50;;
69417;SDS011;56610;48.872;2.400;2023-09-19T14:10:21;3.53;;;1.30;;
69417;SDS011;56610;48.872;2.400;2023-09-19T14:12:46;3.30;;;1.10;;
69417;SDS011;56610;48.872;2.400;2023-09-19T14:15:12;4.60;;;1.73;;
69417;SDS011;56610;48.872;2.400;2023-09-19T14:17:38;3.65;;;1.58;;
69417;SDS011;56610;48.872;2.400;2023-09-19T14:20:07;4.40;;;1.42;;
69417;SDS011;56610;48.872;2.400;2023-09-19T14:22:35;4.25;;;1.50;;
69417;SDS011;56610;48.872;2.400;2023-09-19T14:25:01;2.78;;;1.30;;
69417;SDS011;56610;48.872;2.400;2023-09-19T14:27:30;2.92;;;1.38;;
69417;SDS011;56610;48.872;2.400;2023-09-19T14:29:56;3.95;;;1.58;;
69417;SDS011;56610;48.872;2.400;2023-09-19T14:32:24;3.28;;;1.20;;
69417;SDS011;56610;48.872;2.400;2023-09-19T14:34:51;3.60;;;1.25;;
69417;SDS011;56610;48.872;2.400;2023-09-19T14:37:17;2.55;;;1.40;;
69417;SDS011;56610;48.872;2.400;2023-09-19T14:39:43;3.38;;;1.50;;
69417;SDS011;56610;48.872;2.400;2023-09-19T14:42:11;3.28;;;1.58;;
69417;SDS011;56610;48.872;2.400;2023-09-19T14:47:05;3.22;;;1.23;;
69417;SDS011;56610;48.872;2.400;2023-09-19T14:49:35;4.27;;;1.67;;
69417;SDS011;56610;48.872;2.400;2023-09-19T14:52:06;3.65;;;1.38;;
69417;SDS011;56610;48.872;2.400;2023-09-19T14:54:32;3.78;;;1.55;;
69417;SDS011;56610;48.872;2.400;2023-09-19T14:56:58;4.97;;;1.60;;
69417;SDS011;56610;48.872;2.400;2023-09-19T14:59:34;3.30;;;1.20;;
69417;SDS011;56610;48.872;2.400;2023-09-19T15:02:05;3.70;;;1.60;;
69417;SDS011;56610;48.872;2.400;2023-09-19T15:04:32;2.97;;;1.50;;
69417;SDS011;56610;48.872;2.400;2023-09-19T15:06:58;5.35;;;1.45;;
69417;SDS011;56610;48.872;2.400;2023-09-19T15:09:25;5.15;;;1.70;;
69417;SDS011;56610;48.872;2.400;2023-09-19T15:11:54;3.85;;;1.50;;
69417;SDS011;56610;48.872;2.400;2023-09-19T15:14:23;4.07;;;1.52;;
69417;SDS011;56610;48.872;2.400;2023-09-19T15:16:50;6.55;;;1.50;;
69417;SDS011;56610;48.872;2.400;2023-09-19T15:19:18;3.03;;;1.55;;
69417;SDS011;56610;48.872;2.400;2023-09-19T15:21:44;3.35;;;1.40;;
69417;SDS011;56610;48.872;2.400;2023-09-19T15:24:09;2.97;;;1.40;;
69417;SDS011;56610;48.872;2.400;2023-09-19T15:26:35;4.30;;;1.50;;
69417;SDS011;56610;48.872;2.400;2023-09-19T15:29:05;1.40;;;1.02;;
69417;SDS011;56610;48.872;2.400;2023-09-19T15:33:58;6.97;;;1.83;;
69417;SDS011;56610;48.872;2.400;2023-09-19T15:36:23;4.82;;;1.83;;
69417;SDS011;56610;48.872;2.400;2023-09-19T15:38:59;4.07;;;1.50;;
69417;SDS011;56610;48.872;2.400;2023-09-19T15:41:26;4.90;;;1.85;;
69417;SDS011;56610;48.872;2.400;2023-09-19T15:43:56;6.03;;;1.58;;
69417;SDS011;56610;48.872;2.400;2023-09-19T15:46:26;7.13;;;1.67;;
69417;SDS011;56610;48.872;2.400;2023-09-19T15:48:54;4.80;;;1.48;;
69417;SDS011;56610;48.872;2.400;2023-09-19T15:51:22;4.85;;;1.27;;
69417;SDS011;56610;48.872;2.400;2023-09-19T15:53:49;4.15;;;1.30;;
69417;SDS011;56610;48.872;2.400;2023-09-19T15:56:16;3.80;;;1.70;;
69417;SDS011;56610;48.872;2.400;2023-09-19T15:58:46;3.00;;;1.48;;
69417;SDS011;56610;48.872;2.400;2023-09-19T16:01:13;4.20;;;1.73;;
69417;SDS011;56610;48.872;2.400;2023-09-19T16:03:47;3.85;;;1.35;;
69417;SDS011;56610;48.872;2.400;2023-09-19T16:06:26;5.40;;;1.42;;
69417;SDS011;56610;48.872;2.400;2023-09-19T16:08:54;4.13;;;1.77;;
69417;SDS011;56610;48.872;2.400;2023-09-19T16:11:23;4.80;;;1.40;;
69417;SDS011;56610;48.872;2.400;2023-09-19T16:13:49;3.88;;;1.27;;
69417;SDS011;56610;48.872;2.400;2023-09-19T16:16:16;3.65;;;1.63;;
69417;SDS011;56610;48.872;2.400;2023-09-19T16:18:48;3.33;;;1.73;;
69417;SDS011;56610;48.872;2.400;2023-09-19T16:21:14;3.35;;;1.55;;
69417;SDS011;56610;48.872;2.400;2023-09-19T16:23:40;3.25;;;1.50;;
69417;SDS011;56610;48.872;2.400;2023-09-19T16:26:09;3.60;;;1.35;;
69417;SDS011;56610;48.872;2.400;2023-09-19T16:28:35;4.53;;;1.58;;
69417;SDS011;56610;48.872;2.400;2023-09-19T16:31:05;4.68;;;1.63;;
69417;SDS011;56610;48.872;2.400;2023-09-19T16:33:38;2.45;;;1.35;;
69417;SDS011;56610;48.872;2.400;2023-09-19T16:36:08;4.90;;;1.52;;
69417;SDS011;56610;48.872;2.400;2023-09-19T16:38:35;4.33;;;1.33;;
69417;SDS011;56610;48.872;2.400;2023-09-19T16:41:05;3.55;;;1.50;;